Hamlet, North Carolina
Current Conditions -  °F | °C
As of 6:55 PM on Sunday 23 Nov 2014 (Local Time) from KRCZ Reporting Station
Light Rain Light Rain  
Wind Chill: 62°   Ceiling: 600
Heat Index: 62°   Visibility: 5mi
Dew Point: 62°   Wind: 12mph
Humidity: 97%   Direction: 130°SE
Pressure: 29.87"   Gusts: 18mph
Location:  34.89°N, 79.7°W
Report Text: KRCZ 232355Z AUTO 13010G16KT 5SM -RA OVC006 17/16 A2987 RMK AO2 P0008 60044 T01690164 10169 20115
Loading
Personal Weather Stations






























Interactive Weather Map New forecast layout! Learn more

10-Day Weather Forecast

Advertisements
Track Severe Weather on mobile